createdAt,value
2023-12-13T00:00:34.141Z,100311.38
2023-12-13T00:03:02.586Z,100312.09
2023-12-13T00:05:29.169Z,100307.53
2023-12-13T00:07:55.655Z,100303.88
2023-12-13T00:10:22.212Z,100289.44
2023-12-13T00:12:48.712Z,100288.28
2023-12-13T00:15:15.271Z,100272.16
2023-12-13T00:17:42.852Z,100257.72
2023-12-13T00:20:09.921Z,100258.72
2023-12-13T00:22:36.541Z,100258.00
2023-12-13T00:25:03.061Z,100253.94
2023-12-13T00:27:29.533Z,100244.31
2023-12-13T00:29:56.098Z,100239.09
2023-12-13T00:32:22.750Z,100251.13
2023-12-13T00:34:49.599Z,100254.97
2023-12-13T00:37:16.199Z,100252.59
2023-12-13T00:39:43.358Z,100247.47
2023-12-13T00:42:10.116Z,100249.34
2023-12-13T00:44:37.935Z,100251.31
2023-12-13T00:47:04.484Z,100245.09
2023-12-13T00:49:31.003Z,100233.50
2023-12-13T00:51:57.563Z,100208.91
2023-12-13T00:54:24.078Z,100213.59
2023-12-13T00:56:50.580Z,100214.59
2023-12-13T00:59:17.031Z,100216.28
2023-12-13T01:01:45.110Z,100210.91
2023-12-13T01:04:11.999Z,100201.84
2023-12-13T01:06:38.495Z,100202.69
2023-12-13T01:09:05.038Z,100220.66
2023-12-13T01:11:31.532Z,100235.91
2023-12-13T01:13:58.017Z,100239.47
2023-12-13T01:16:24.530Z,100233.22
2023-12-13T01:18:51.151Z,100232.13
2023-12-13T01:21:17.652Z,100240.88
2023-12-13T01:23:44.129Z,100247.09
2023-12-13T01:26:10.643Z,100237.19
2023-12-13T01:28:37.135Z,100229.97
2023-12-13T01:31:09.804Z,100232.66
2023-12-13T01:33:36.693Z,100223.59
2023-12-13T01:36:03.752Z,100222.78
2023-12-13T01:38:30.495Z,100233.34
2023-12-13T01:41:11.472Z,100222.47
2023-12-13T01:43:40.953Z,100224.75
2023-12-13T01:46:07.692Z,100230.53
2023-12-13T01:48:34.369Z,100222.47
2023-12-13T01:51:00.935Z,100220.94
2023-12-13T01:53:27.473Z,100236.09
2023-12-13T01:55:55.116Z,100232.94
2023-12-13T01:58:21.687Z,100218.94
2023-12-13T02:00:48.298Z,100211.13
2023-12-13T02:03:14.799Z,100211.38
2023-12-13T02:05:41.406Z,100197.47
2023-12-13T02:08:08.052Z,100177.56
2023-12-13T02:10:34.898Z,100184.75
2023-12-13T02:13:01.478Z,100173.75
2023-12-13T02:15:27.964Z,100184.25
2023-12-13T02:17:54.515Z,100182.53
2023-12-13T02:20:21.520Z,100165.31
2023-12-13T02:22:48.224Z,100150.84
2023-12-13T02:25:22.866Z,100145.47
2023-12-13T02:27:49.649Z,100155.06
2023-12-13T02:30:16.139Z,100155.78
2023-12-13T02:32:42.673Z,100156.47
2023-12-13T02:35:09.141Z,100157.16
2023-12-13T02:37:36.086Z,100142.44
2023-12-13T02:40:04.435Z,100137.75
2023-12-13T02:42:31.353Z,100136.78
2023-12-13T02:44:57.922Z,100129.53
2023-12-13T02:47:26.565Z,100143.69
2023-12-13T02:49:53.571Z,100141.53
2023-12-13T02:52:20.193Z,100135.00
2023-12-13T02:54:46.675Z,100129.31
2023-12-13T02:57:13.393Z,100120.75
2023-12-13T02:59:39.873Z,100122.72
2023-12-13T03:02:06.462Z,100123.34
2023-12-13T03:04:33.024Z,100129.31
2023-12-13T03:06:59.894Z,100128.50
2023-12-13T03:09:26.406Z,100119.50
2023-12-13T03:11:52.885Z,100120.25
2023-12-13T03:14:19.332Z,100114.50
2023-12-13T03:16:45.812Z,100114.06
2023-12-13T03:19:12.743Z,100115.69
2023-12-13T03:21:39.309Z,100113.53
2023-12-13T03:24:05.892Z,100109.47
2023-12-13T03:26:32.420Z,100108.06
2023-12-13T03:28:58.908Z,100103.53
2023-12-13T03:31:25.401Z,100101.69
2023-12-13T03:33:51.954Z,100091.97
2023-12-13T03:36:18.572Z,100088.25
2023-12-13T03:38:47.662Z,100080.06
2023-12-13T03:41:14.230Z,100066.63
2023-12-13T03:43:40.865Z,100056.72
2023-12-13T03:46:07.448Z,100067.19
2023-12-13T03:48:34.069Z,100053.78
2023-12-13T03:51:02.466Z,100064.19
2023-12-13T03:53:29.340Z,100063.13
2023-12-13T03:55:56.007Z,100058.56
2023-12-13T03:58:22.618Z,100061.25
2023-12-13T04:00:49.308Z,100055.75
2023-12-13T04:03:15.987Z,100066.50
2023-12-13T04:05:42.535Z,100076.22
2023-12-13T04:08:09.712Z,100080.44
2023-12-13T04:10:36.258Z,100071.56
2023-12-13T04:13:02.801Z,100070.41
2023-12-13T04:15:29.238Z,100062.06
2023-12-13T04:17:56.255Z,100057.66
2023-12-13T04:20:22.755Z,100061.19
2023-12-13T04:22:49.276Z,100068.41
2023-12-13T04:25:15.915Z,100067.56
2023-12-13T04:27:42.522Z,100071.41
2023-12-13T04:30:09.798Z,100067.19
2023-12-13T04:32:36.413Z,100056.59
2023-12-13T04:35:03.013Z,100052.06
2023-12-13T04:37:29.870Z,100051.06
2023-12-13T04:39:56.633Z,100044.00
2023-12-13T04:42:23.123Z,100040.47
2023-12-13T04:44:50.717Z,100044.00
2023-12-13T04:47:17.407Z,100049.69
2023-12-13T04:49:43.909Z,100049.78
2023-12-13T04:52:10.478Z,100053.22
2023-12-13T04:54:38.412Z,100039.47
2023-12-13T04:57:05.482Z,100043.69
2023-12-13T04:59:31.925Z,100034.50
2023-12-13T05:01:58.410Z,100026.28
2023-12-13T05:04:24.877Z,100019.78
2023-12-13T05:06:51.370Z,99994.59
2023-12-13T05:09:17.853Z,99983.84
2023-12-13T05:11:44.361Z,100018.47
2023-12-13T05:14:10.884Z,100044.34
2023-12-13T05:16:37.354Z,100048.16
2023-12-13T05:19:04.102Z,100055.41
2023-12-13T05:21:30.640Z,100043.78
2023-12-13T05:23:57.032Z,100031.50
2023-12-13T05:26:23.622Z,100047.84
2023-12-13T05:28:50.251Z,100059.88
2023-12-13T05:31:20.325Z,100080.41
2023-12-13T05:33:47.037Z,100086.09
2023-12-13T05:36:13.528Z,100076.19
2023-12-13T05:38:41.038Z,100072.50
2023-12-13T05:41:07.504Z,100056.25
2023-12-13T05:43:36.532Z,100060.63
2023-12-13T05:46:06.700Z,100056.94
2023-12-13T05:48:33.529Z,100054.94
2023-12-13T05:51:00.422Z,100048.59
2023-12-13T05:53:26.900Z,100051.44
2023-12-13T05:55:53.509Z,100049.91
2023-12-13T05:58:20.014Z,100034.06
2023-12-13T06:00:46.581Z,100038.59
2023-12-13T06:03:13.045Z,100049.03
2023-12-13T06:05:39.667Z,100045.06
2023-12-13T06:08:06.292Z,100061.34
2023-12-13T06:10:32.801Z,100069.22
2023-12-13T06:12:59.349Z,100069.63
2023-12-13T06:15:25.981Z,100066.50
2023-12-13T06:17:52.503Z,100058.00
2023-12-13T06:20:19.087Z,100056.00
2023-12-13T06:22:45.600Z,100063.63
2023-12-13T06:25:12.287Z,100055.44
2023-12-13T06:27:38.761Z,100059.50
2023-12-13T06:30:05.585Z,100063.88
2023-12-13T06:32:32.093Z,100063.03
2023-12-13T06:34:58.626Z,100080.00
2023-12-13T06:37:25.122Z,100075.50
2023-12-13T06:39:52.828Z,100080.88
2023-12-13T06:42:19.528Z,100069.41
2023-12-13T06:44:46.362Z,100056.00
2023-12-13T06:47:12.884Z,100042.38
2023-12-13T06:49:39.427Z,100031.50
2023-12-13T06:52:06.005Z,100039.56
2023-12-13T06:54:32.486Z,100041.41
2023-12-13T06:56:59.339Z,100053.13
2023-12-13T06:59:25.832Z,100040.72
2023-12-13T07:01:52.986Z,100031.66
2023-12-13T07:04:19.671Z,100027.97
2023-12-13T07:06:46.199Z,100022.75
2023-12-13T07:09:16.250Z,100016.53
2023-12-13T07:11:44.176Z,100017.38
2023-12-13T07:14:11.102Z,100012.16
2023-12-13T07:16:37.748Z,100001.56
2023-12-13T07:19:04.268Z,99990.84
2023-12-13T07:21:31.309Z,99991.53
2023-12-13T07:23:57.834Z,99999.28
2023-12-13T07:26:25.388Z,100010.56
2023-12-13T07:28:52.765Z,100015.78
2023-12-13T07:31:19.825Z,100007.03
2023-12-13T07:33:46.695Z,100008.72
2023-12-13T07:36:14.510Z,99997.13
2023-12-13T07:38:42.634Z,99996.28
2023-12-13T07:41:09.548Z,99999.13
2023-12-13T07:43:36.245Z,99986.69
2023-12-13T07:46:02.787Z,99986.53
2023-12-13T07:48:31.341Z,99992.91
2023-12-13T07:50:58.354Z,99991.91
2023-12-13T07:53:25.186Z,99986.53
2023-12-13T07:55:51.976Z,99990.06
2023-12-13T07:58:20.636Z,99984.41
2023-12-13T08:00:47.358Z,99981.56
2023-12-13T08:03:13.892Z,99969.13
2023-12-13T08:05:40.570Z,99966.75
2023-12-13T08:08:07.145Z,99964.06
2023-12-13T08:10:33.687Z,99962.34
2023-12-13T08:13:00.364Z,99962.34
2023-12-13T08:15:26.823Z,99962.91
2023-12-13T08:17:53.426Z,99968.28
2023-12-13T08:20:20.036Z,99980.88
2023-12-13T08:22:47.615Z,99971.09
2023-12-13T08:25:14.294Z,99965.03
2023-12-13T08:27:40.873Z,99967.72
2023-12-13T08:30:07.797Z,99970.28
2023-12-13T08:32:34.313Z,99963.19
2023-12-13T08:35:00.807Z,99970.88
2023-12-13T08:37:27.276Z,99968.66
2023-12-13T08:39:54.002Z,99967.38
2023-12-13T08:42:20.729Z,99959.91
2023-12-13T08:44:47.412Z,99959.09
2023-12-13T08:47:14.279Z,99955.25
2023-12-13T08:49:40.870Z,99951.41
2023-12-13T08:52:07.290Z,99953.25
2023-12-13T08:54:34.553Z,99951.72
2023-12-13T08:57:01.915Z,99960.47
2023-12-13T08:59:28.665Z,99954.66
2023-12-13T09:01:55.180Z,99950.84
2023-12-13T09:04:21.987Z,99953.38
2023-12-13T09:06:48.454Z,99948.56
2023-12-13T09:09:15.637Z,99940.16
2023-12-13T09:11:42.183Z,99945.25
2023-12-13T09:14:08.641Z,99953.00
2023-12-13T09:16:35.176Z,99955.38
2023-12-13T09:19:01.763Z,99948.16
2023-12-13T09:21:28.362Z,99953.22
2023-12-13T09:23:54.775Z,99941.63
2023-12-13T09:26:21.309Z,99947.84
2023-12-13T09:28:47.899Z,99949.00
2023-12-13T09:31:14.764Z,99948.72
2023-12-13T09:33:41.477Z,99940.47
2023-12-13T09:36:08.381Z,99958.13
2023-12-13T09:38:34.829Z,99971.03
2023-12-13T09:41:01.333Z,99964.06
2023-12-13T09:43:27.906Z,99974.03
2023-12-13T09:45:54.829Z,99967.84
2023-12-13T09:48:24.750Z,99966.59
2023-12-13T09:50:58.469Z,99969.72
2023-12-13T09:53:25.740Z,99971.03
2023-12-13T09:55:53.347Z,99971.34
2023-12-13T09:58:19.920Z,99968.66
2023-12-13T10:00:46.519Z,99961.56
2023-12-13T10:03:13.033Z,99955.22
2023-12-13T10:05:43.955Z,99958.06
2023-12-13T10:08:12.876Z,99961.56
2023-12-13T10:10:39.497Z,99959.44
2023-12-13T10:13:07.929Z,99960.53
2023-12-13T10:15:34.423Z,99948.03
2023-12-13T10:18:01.325Z,99959.31
2023-12-13T10:20:28.239Z,99956.53
2023-12-13T10:22:54.788Z,99957.06
2023-12-13T10:25:21.812Z,99957.91
2023-12-13T10:27:48.491Z,99956.31
2023-12-13T10:30:15.004Z,99946.81
2023-12-13T10:32:42.330Z,99927.44
2023-12-13T10:35:08.939Z,99936.72
2023-12-13T10:37:36.324Z,99924.63
2023-12-13T10:40:06.457Z,99919.69
2023-12-13T10:42:33.098Z,99921.09
2023-12-13T10:44:59.575Z,99922.63
2023-12-13T10:47:27.320Z,99917.28
2023-12-13T10:49:54.770Z,99909.22
2023-12-13T10:52:24.604Z,99911.91
2023-12-13T10:54:52.092Z,99912.47
2023-12-13T10:57:18.658Z,99925.03
2023-12-13T10:59:45.753Z,99917.69
2023-12-13T11:02:14.033Z,99911.41
2023-12-13T11:04:40.639Z,99912.69
2023-12-13T11:07:10.260Z,99899.13
2023-12-13T11:09:51.916Z,99897.59
2023-12-13T11:12:21.770Z,99909.84
2023-12-13T11:14:51.961Z,99912.63
2023-12-13T11:17:19.769Z,99906.50
2023-12-13T11:19:47.137Z,99903.66
2023-12-13T11:22:13.665Z,99905.66
2023-12-13T11:24:43.060Z,99905.88
2023-12-13T11:27:11.254Z,99894.03
2023-12-13T11:29:37.784Z,99892.41
2023-12-13T11:32:05.441Z,99888.41
2023-12-13T11:34:36.056Z,99891.28
2023-12-13T11:37:02.603Z,99888.47
2023-12-13T11:39:29.759Z,99885.56
2023-12-13T11:41:56.196Z,99883.31
2023-12-13T11:44:22.789Z,99871.28
2023-12-13T11:46:59.760Z,99854.16
2023-12-13T11:49:27.389Z,99859.25
2023-12-13T11:51:54.967Z,99876.22
2023-12-13T11:54:21.461Z,99880.75
2023-12-13T11:56:47.948Z,99865.13
2023-12-13T11:59:14.925Z,99847.16
2023-12-13T12:01:41.647Z,99833.97
2023-12-13T12:04:08.525Z,99830.78
2023-12-13T12:06:35.026Z,99831.25
2023-12-13T12:09:02.117Z,99824.66
2023-12-13T12:11:28.654Z,99830.75
2023-12-13T12:13:58.497Z,99834.13
2023-12-13T12:16:25.111Z,99834.84
2023-12-13T12:18:53.543Z,99828.47
2023-12-13T12:21:20.184Z,99833.53
2023-12-13T12:23:46.715Z,99840.63
2023-12-13T12:26:13.998Z,99830.53
2023-12-13T12:28:41.383Z,99828.84
2023-12-13T12:31:15.509Z,99829.00
2023-12-13T12:33:44.068Z,99823.31
2023-12-13T12:36:10.679Z,99823.78
2023-12-13T12:38:38.855Z,99822.44
2023-12-13T12:41:05.921Z,99818.75
2023-12-13T12:43:32.605Z,99827.84
2023-12-13T12:45:59.047Z,99809.66
2023-12-13T12:48:25.761Z,99807.97
2023-12-13T12:50:52.365Z,99809.84
2023-12-13T12:53:19.999Z,99820.41
2023-12-13T12:55:46.569Z,99820.09
2023-12-13T12:58:13.089Z,99806.97
2023-12-13T13:00:39.602Z,99800.25
2023-12-13T13:03:08.125Z,99807.13
2023-12-13T13:05:35.581Z,99806.47
2023-12-13T13:08:02.499Z,99796.88
2023-12-13T13:10:29.053Z,99792.47
2023-12-13T13:12:55.570Z,99793.81
2023-12-13T13:15:23.809Z,99788.41
2023-12-13T13:17:51.267Z,99779.00
2023-12-13T13:20:20.994Z,99778.50
2023-12-13T13:22:47.606Z,99780.66
2023-12-13T13:25:14.290Z,99764.19
2023-12-13T13:27:41.075Z,99753.72
2023-12-13T13:30:08.979Z,99749.84
2023-12-13T13:32:35.687Z,99755.06
2023-12-13T13:35:02.383Z,99758.75
2023-12-13T13:37:28.907Z,99753.66
2023-12-13T13:39:55.405Z,99753.81
2023-12-13T13:42:21.979Z,99752.59
2023-12-13T13:44:48.547Z,99753.91
2023-12-13T13:47:15.118Z,99750.50
2023-12-13T13:49:42.238Z,99750.44
2023-12-13T13:52:09.053Z,99745.91
2023-12-13T13:54:35.582Z,99744.69
2023-12-13T13:57:05.448Z,99748.16
2023-12-13T13:59:32.156Z,99751.34
2023-12-13T14:01:58.809Z,99759.88
2023-12-13T14:04:25.449Z,99768.44
2023-12-13T14:06:51.950Z,99763.34
2023-12-13T14:09:18.803Z,99759.69
2023-12-13T14:11:45.324Z,99762.38
2023-12-13T14:14:12.756Z,99739.41
2023-12-13T14:16:41.632Z,99742.88
2023-12-13T14:19:08.164Z,99763.38
2023-12-13T14:21:35.119Z,99762.84
2023-12-13T14:24:02.959Z,99754.72
2023-12-13T14:26:30.427Z,99755.88
2023-12-13T14:28:57.043Z,99763.72
2023-12-13T14:31:25.307Z,99760.25
2023-12-13T14:33:52.809Z,99749.88
2023-12-13T14:36:19.406Z,99745.47
2023-12-13T14:38:45.844Z,99745.06
2023-12-13T14:41:12.269Z,99744.91
2023-12-13T14:43:38.780Z,99744.53
2023-12-13T14:46:05.827Z,99747.91
2023-12-13T14:48:32.372Z,99757.78
2023-12-13T14:50:59.613Z,99761.56
2023-12-13T14:53:26.083Z,99763.69
2023-12-13T14:55:52.756Z,99772.34
2023-12-13T14:58:20.692Z,99771.38
2023-12-13T15:00:47.700Z,99770.59
2023-12-13T15:03:14.371Z,99762.56
2023-12-13T15:05:41.390Z,99768.28
2023-12-13T15:08:09.827Z,99770.13
2023-12-13T15:10:36.470Z,99773.31
2023-12-13T15:13:06.045Z,99774.50
2023-12-13T15:15:34.136Z,99769.28
2023-12-13T15:18:00.810Z,99780.72
2023-12-13T15:20:27.481Z,99769.13
2023-12-13T15:22:54.014Z,99771.13
2023-12-13T15:25:21.240Z,99774.31
2023-12-13T15:27:47.930Z,99775.09
2023-12-13T15:30:14.645Z,99789.34
2023-12-13T15:32:41.834Z,99792.13
2023-12-13T15:35:10.868Z,99800.16
2023-12-13T15:37:38.137Z,99808.31
2023-12-13T15:40:05.805Z,99804.88
2023-12-13T15:42:32.482Z,99807.31
2023-12-13T15:44:58.977Z,99795.59
2023-12-13T15:47:25.514Z,99777.16
2023-12-13T15:49:52.176Z,99785.75
2023-12-13T15:52:18.753Z,99788.16
2023-12-13T15:54:45.174Z,99792.19
2023-12-13T15:57:11.683Z,99805.31
2023-12-13T15:59:38.149Z,99808.53
2023-12-13T16:02:05.773Z,99807.66
2023-12-13T16:04:34.489Z,99811.22
2023-12-13T16:07:01.558Z,99814.88
2023-12-13T16:09:28.306Z,99804.28
2023-12-13T16:11:55.127Z,99810.69
2023-12-13T16:14:24.233Z,99812.53
2023-12-13T16:19:17.638Z,99815.50
2023-12-13T16:21:44.415Z,99828.44
2023-12-13T16:24:10.946Z,99831.88
2023-12-13T16:26:37.712Z,99829.47
2023-12-13T16:29:08.074Z,99837.84
2023-12-13T16:31:39.989Z,99834.56
2023-12-13T16:34:06.480Z,99833.78
2023-12-13T16:36:33.000Z,99836.25
2023-12-13T16:38:59.466Z,99847.59
2023-12-13T16:41:26.332Z,99844.13
2023-12-13T16:43:52.850Z,99847.25
2023-12-13T16:46:19.870Z,99851.22
2023-12-13T16:48:49.622Z,99852.53
2023-12-13T16:51:19.747Z,99851.28
2023-12-13T16:53:51.792Z,99836.47
2023-12-13T16:56:18.999Z,99843.69
2023-12-13T16:58:45.554Z,99851.03
2023-12-13T17:01:12.298Z,99853.84
2023-12-13T17:03:41.392Z,99851.47
2023-12-13T17:06:08.113Z,99858.13
2023-12-13T17:08:34.761Z,99859.81
2023-12-13T17:11:01.475Z,99863.38
2023-12-13T17:13:28.893Z,99858.28
2023-12-13T17:15:55.372Z,99867.34
2023-12-13T17:18:22.918Z,99864.44
2023-12-13T17:20:50.552Z,99854.72
2023-12-13T17:23:17.313Z,99858.28
2023-12-13T17:25:43.886Z,99857.19
2023-12-13T17:28:10.467Z,99864.75
2023-12-13T17:30:37.675Z,99862.25
2023-12-13T17:33:04.620Z,99866.47
2023-12-13T17:35:31.614Z,99869.13
2023-12-13T17:37:58.966Z,99869.88
2023-12-13T17:40:25.658Z,99871.56
2023-12-13T17:42:52.395Z,99872.25
2023-12-13T17:45:18.909Z,99875.63
2023-12-13T17:47:45.483Z,99870.69
2023-12-13T17:50:12.112Z,99862.22
2023-12-13T17:52:38.890Z,99871.66
2023-12-13T17:55:06.443Z,99885.75
2023-12-13T17:57:32.992Z,99887.59
2023-12-13T17:59:59.938Z,99883.66
2023-12-13T18:02:27.996Z,99885.25
2023-12-13T18:04:54.633Z,99886.78
2023-12-13T18:07:21.215Z,99904.94
2023-12-13T18:09:48.541Z,99893.69
2023-12-13T18:12:15.109Z,99898.88
2023-12-13T18:14:41.554Z,99903.97
2023-12-13T18:17:08.187Z,99906.38
2023-12-13T18:19:34.787Z,99908.78
2023-12-13T18:22:01.329Z,99915.81
2023-12-13T18:24:27.802Z,99930.22
2023-12-13T18:26:54.465Z,99924.31
2023-12-13T18:29:20.934Z,99928.22
2023-12-13T18:31:47.822Z,99929.38
2023-12-13T18:34:15.327Z,99945.13
2023-12-13T18:36:41.924Z,99942.78
2023-12-13T18:39:08.484Z,99949.41
2023-12-13T18:41:34.966Z,99944.59
2023-12-13T18:44:01.618Z,99946.28
2023-12-13T18:46:28.265Z,99947.16
2023-12-13T18:48:57.026Z,99937.56
2023-12-13T18:51:23.522Z,99942.09
2023-12-13T18:53:50.008Z,99946.72
2023-12-13T18:56:16.498Z,99949.13
2023-12-13T18:58:43.027Z,99949.69
2023-12-13T19:01:09.576Z,99943.63
2023-12-13T19:03:36.124Z,99948.41
2023-12-13T19:06:02.704Z,99944.31
2023-12-13T19:08:29.260Z,99955.59
2023-12-13T19:10:56.391Z,99965.06
2023-12-13T19:13:23.199Z,99967.44
2023-12-13T19:15:49.784Z,99967.16
2023-12-13T19:18:18.051Z,99967.84
2023-12-13T19:20:46.310Z,99970.25
2023-12-13T19:23:13.449Z,99974.06
2023-12-13T19:25:39.983Z,99977.56
2023-12-13T19:28:09.899Z,99979.13
2023-12-13T19:30:36.446Z,99980.13
2023-12-13T19:33:03.029Z,99984.91
2023-12-13T19:35:29.504Z,99987.72
2023-12-13T19:37:56.053Z,99996.03
2023-12-13T19:40:22.508Z,99986.28
2023-12-13T19:42:49.839Z,99984.03
2023-12-13T19:45:16.335Z,99988.25
2023-12-13T19:47:42.882Z,99986.50
2023-12-13T19:50:09.639Z,99988.63
2023-12-13T19:52:36.243Z,99991.69
2023-12-13T19:55:02.742Z,99994.94
2023-12-13T19:57:29.171Z,100000.53
2023-12-13T19:59:56.677Z,99995.59
2023-12-13T20:02:23.831Z,100005.84
2023-12-13T20:04:50.817Z,100008.94
2023-12-13T20:07:19.473Z,100011.41
2023-12-13T20:09:45.992Z,100011.09
2023-12-13T20:12:12.602Z,100014.78
2023-12-13T20:14:39.481Z,100010.53
2023-12-13T20:17:06.113Z,100011.50
2023-12-13T20:19:32.647Z,100017.81
2023-12-13T20:21:59.538Z,100023.19
2023-12-13T20:24:25.989Z,100012.47
2023-12-13T20:26:53.013Z,100016.16
2023-12-13T20:29:19.537Z,100035.72
2023-12-13T20:31:46.122Z,100025.16
2023-12-13T20:34:12.697Z,100023.44
2023-12-13T20:36:39.227Z,100015.56
2023-12-13T20:39:05.875Z,100033.44
2023-12-13T20:41:32.376Z,100030.75
2023-12-13T20:43:59.333Z,100038.91
2023-12-13T20:46:25.952Z,100038.06
2023-12-13T20:48:53.219Z,100048.88
2023-12-13T20:51:19.719Z,100054.38
2023-12-13T20:53:46.189Z,100055.47
2023-12-13T20:56:13.140Z,100061.94
2023-12-13T20:58:40.937Z,100056.69
2023-12-13T21:01:07.506Z,100051.50
2023-12-13T21:03:34.009Z,100050.06
2023-12-13T21:06:00.570Z,100047.50
2023-12-13T21:08:27.095Z,100053.94
2023-12-13T21:10:53.550Z,100043.50
2023-12-13T21:13:20.575Z,100043.50
2023-12-13T21:15:47.348Z,100052.50
2023-12-13T21:18:13.868Z,100052.75
2023-12-13T21:20:40.989Z,100060.06
2023-12-13T21:23:07.759Z,100059.34
2023-12-13T21:25:34.491Z,100054.00
2023-12-13T21:28:00.977Z,100063.44
2023-12-13T21:30:27.519Z,100065.03
2023-12-13T21:32:54.231Z,100069.28
2023-12-13T21:35:20.883Z,100070.00
2023-12-13T21:37:47.491Z,100071.66
2023-12-13T21:40:14.069Z,100075.34
2023-12-13T21:42:40.919Z,100069.38
2023-12-13T21:45:08.191Z,100078.53
2023-12-13T21:47:36.454Z,100082.31
2023-12-13T21:50:03.693Z,100086.66
2023-12-13T21:52:36.854Z,100089.09
2023-12-13T21:55:04.258Z,100088.81
2023-12-13T21:57:30.846Z,100095.00
2023-12-13T21:59:57.639Z,100098.41
2023-12-13T22:02:24.097Z,100100.88
2023-12-13T22:04:50.683Z,100105.69
2023-12-13T22:07:17.213Z,100115.16
2023-12-13T22:09:43.651Z,100118.53
2023-12-13T22:12:10.106Z,100121.66
2023-12-13T22:14:36.590Z,100118.75
2023-12-13T22:17:03.112Z,100114.09
2023-12-13T22:19:41.755Z,100116.66
2023-12-13T22:22:09.107Z,100129.88
2023-12-13T22:24:35.578Z,100122.59
2023-12-13T22:27:02.405Z,100131.06
2023-12-13T22:29:28.901Z,100128.00
2023-12-13T22:31:55.420Z,100125.91
2023-12-13T22:34:21.914Z,100140.59
2023-12-13T22:36:48.464Z,100134.59
2023-12-13T22:39:14.995Z,100135.75
2023-12-13T22:41:41.517Z,100130.13
2023-12-13T22:44:08.001Z,100131.84
2023-12-13T22:46:34.602Z,100134.63
2023-12-13T22:49:01.133Z,100144.78
2023-12-13T22:51:27.761Z,100136.28
2023-12-13T22:53:54.266Z,100138.63
2023-12-13T22:56:20.724Z,100138.75
2023-12-13T22:58:47.197Z,100140.59
2023-12-13T23:01:13.855Z,100131.97
2023-12-13T23:03:40.773Z,100129.56
2023-12-13T23:06:07.538Z,100128.84
2023-12-13T23:08:34.118Z,100129.97
2023-12-13T23:11:00.595Z,100133.38
2023-12-13T23:13:27.824Z,100133.09
2023-12-13T23:15:54.732Z,100134.66
2023-12-13T23:18:21.306Z,100138.75
2023-12-13T23:20:47.841Z,100133.16
2023-12-13T23:23:18.495Z,100141.91
2023-12-13T23:25:45.077Z,100143.72
2023-12-13T23:28:12.000Z,100141.19
2023-12-13T23:30:38.534Z,100136.81
2023-12-13T23:33:05.057Z,100131.31
2023-12-13T23:35:31.645Z,100126.81
2023-12-13T23:37:58.297Z,100126.94
2023-12-13T23:40:24.885Z,100129.06
2023-12-13T23:42:51.359Z,100132.81
2023-12-13T23:45:18.091Z,100140.28
2023-12-13T23:47:44.632Z,100139.78
2023-12-13T23:50:11.331Z,100139.06
2023-12-13T23:52:38.169Z,100141.75
2023-12-13T23:55:05.074Z,100146.84
2023-12-13T23:57:31.798Z,100141.25
2023-12-13T23:59:58.263Z,100149.03
